sensor_id;sensor_type;location;lat;lon;timestamp;P1;durP1;ratioP1;P2;durP2;ratioP2
13879;SDS011;7010;48.200;16.332;2022-11-20T00:01:31;14.98;;;11.93;;
13879;SDS011;7010;48.200;16.332;2022-11-20T00:04:00;17.05;;;12.43;;
13879;SDS011;7010;48.200;16.332;2022-11-20T00:06:28;15.95;;;12.50;;
13879;SDS011;7010;48.200;16.332;2022-11-20T00:08:59;15.88;;;13.13;;
13879;SDS011;7010;48.200;16.332;2022-11-20T00:11:28;18.02;;;13.23;;
13879;SDS011;7010;48.200;16.332;2022-11-20T00:13:58;16.85;;;12.63;;
13879;SDS011;7010;48.200;16.332;2022-11-20T00:16:28;15.10;;;12.10;;
13879;SDS011;7010;48.200;16.332;2022-11-20T00:18:58;12.00;;;10.75;;
13879;SDS011;7010;48.200;16.332;2022-11-20T00:21:27;13.07;;;11.38;;
13879;SDS011;7010;48.200;16.332;2022-11-20T00:23:56;12.83;;;10.50;;
13879;SDS011;7010;48.200;16.332;2022-11-20T00:26:27;17.65;;;12.90;;
13879;SDS011;7010;48.200;16.332;2022-11-20T00:28:58;15.77;;;11.68;;
13879;SDS011;7010;48.200;16.332;2022-11-20T00:31:28;12.55;;;11.05;;
13879;SDS011;7010;48.200;16.332;2022-11-20T00:33:59;15.38;;;11.57;;
13879;SDS011;7010;48.200;16.332;2022-11-20T00:36:28;12.50;;;11.00;;
13879;SDS011;7010;48.200;16.332;2022-11-20T00:39:00;17.33;;;12.55;;
13879;SDS011;7010;48.200;16.332;2022-11-20T00:41:29;13.13;;;11.43;;
13879;SDS011;7010;48.200;16.332;2022-11-20T00:43:57;14.38;;;11.95;;
13879;SDS011;7010;48.200;16.332;2022-11-20T00:46:27;13.57;;;11.40;;
13879;SDS011;7010;48.200;16.332;2022-11-20T00:48:55;12.07;;;10.63;;
13879;SDS011;7010;48.200;16.332;2022-11-20T00:51:24;12.48;;;11.23;;
13879;SDS011;7010;48.200;16.332;2022-11-20T00:53:54;15.82;;;11.55;;
13879;SDS011;7010;48.200;16.332;2022-11-20T00:56:25;13.48;;;11.85;;
13879;SDS011;7010;48.200;16.332;2022-11-20T00:58:53;11.60;;;9.73;;
13879;SDS011;7010;48.200;16.332;2022-11-20T01:01:22;15.23;;;11.10;;
13879;SDS011;7010;48.200;16.332;2022-11-20T01:03:53;12.90;;;11.10;;
13879;SDS011;7010;48.200;16.332;2022-11-20T01:06:30;17.23;;;10.43;;
13879;SDS011;7010;48.200;16.332;2022-11-20T01:09:00;12.97;;;10.07;;
13879;SDS011;7010;48.200;16.332;2022-11-20T01:11:32;12.38;;;10.50;;
13879;SDS011;7010;48.200;16.332;2022-11-20T01:14:03;13.40;;;10.57;;
13879;SDS011;7010;48.200;16.332;2022-11-20T01:16:35;12.33;;;10.87;;
13879;SDS011;7010;48.200;16.332;2022-11-20T01:19:05;11.97;;;9.83;;
13879;SDS011;7010;48.200;16.332;2022-11-20T01:21:36;15.73;;;11.65;;
13879;SDS011;7010;48.200;16.332;2022-11-20T01:24:05;11.65;;;10.45;;
13879;SDS011;7010;48.200;16.332;2022-11-20T01:26:37;10.77;;;9.67;;
13879;SDS011;7010;48.200;16.332;2022-11-20T01:29:08;12.48;;;10.85;;
13879;SDS011;7010;48.200;16.332;2022-11-20T01:31:38;12.13;;;10.60;;
13879;SDS011;7010;48.200;16.332;2022-11-20T01:34:09;11.50;;;10.15;;
13879;SDS011;7010;48.200;16.332;2022-11-20T01:36:38;14.77;;;10.90;;
13879;SDS011;7010;48.200;16.332;2022-11-20T01:39:09;13.48;;;11.07;;
13879;SDS011;7010;48.200;16.332;2022-11-20T01:41:41;15.57;;;10.57;;
13879;SDS011;7010;48.200;16.332;2022-11-20T01:44:43;11.70;;;10.45;;
13879;SDS011;7010;48.200;16.332;2022-11-20T01:47:20;13.13;;;11.05;;
13879;SDS011;7010;48.200;16.332;2022-11-20T01:49:54;12.67;;;10.63;;
13879;SDS011;7010;48.200;16.332;2022-11-20T01:52:27;12.88;;;11.25;;
13879;SDS011;7010;48.200;16.332;2022-11-20T01:55:04;13.02;;;10.65;;
13879;SDS011;7010;48.200;16.332;2022-11-20T01:57:35;13.80;;;11.05;;
13879;SDS011;7010;48.200;16.332;2022-11-20T02:00:07;16.17;;;12.00;;
13879;SDS011;7010;48.200;16.332;2022-11-20T02:02:37;13.85;;;11.50;;
13879;SDS011;7010;48.200;16.332;2022-11-20T02:05:14;12.77;;;11.40;;
13879;SDS011;7010;48.200;16.332;2022-11-20T02:07:47;15.47;;;11.50;;
13879;SDS011;7010;48.200;16.332;2022-11-20T02:10:16;12.80;;;11.13;;
13879;SDS011;7010;48.200;16.332;2022-11-20T02:12:46;17.58;;;13.25;;
13879;SDS011;7010;48.200;16.332;2022-11-20T02:15:32;14.82;;;12.00;;
13879;SDS011;7010;48.200;16.332;2022-11-20T02:18:01;18.05;;;13.25;;
13879;SDS011;7010;48.200;16.332;2022-11-20T02:20:29;16.80;;;12.45;;
13879;SDS011;7010;48.200;16.332;2022-11-20T02:22:57;13.57;;;11.80;;
13879;SDS011;7010;48.200;16.332;2022-11-20T02:25:31;16.20;;;12.48;;
13879;SDS011;7010;48.200;16.332;2022-11-20T02:28:02;13.87;;;11.17;;
13879;SDS011;7010;48.200;16.332;2022-11-20T02:30:31;14.88;;;12.88;;
13879;SDS011;7010;48.200;16.332;2022-11-20T02:32:59;16.63;;;13.10;;
13879;SDS011;7010;48.200;16.332;2022-11-20T02:35:39;14.07;;;11.83;;
13879;SDS011;7010;48.200;16.332;2022-11-20T02:38:09;12.80;;;11.48;;
13879;SDS011;7010;48.200;16.332;2022-11-20T02:40:39;17.80;;;13.73;;
13879;SDS011;7010;48.200;16.332;2022-11-20T02:43:07;16.98;;;13.63;;
13879;SDS011;7010;48.200;16.332;2022-11-20T02:45:36;15.50;;;11.97;;
13879;SDS011;7010;48.200;16.332;2022-11-20T02:48:06;13.37;;;11.97;;
13879;SDS011;7010;48.200;16.332;2022-11-20T02:50:36;17.83;;;12.45;;
13879;SDS011;7010;48.200;16.332;2022-11-20T02:53:06;16.70;;;12.27;;
13879;SDS011;7010;48.200;16.332;2022-11-20T02:55:34;13.10;;;11.80;;
13879;SDS011;7010;48.200;16.332;2022-11-20T02:58:07;14.63;;;11.75;;
13879;SDS011;7010;48.200;16.332;2022-11-20T03:00:36;12.87;;;11.37;;
13879;SDS011;7010;48.200;16.332;2022-11-20T03:03:04;12.52;;;10.57;;
13879;SDS011;7010;48.200;16.332;2022-11-20T03:05:32;16.58;;;12.07;;
13879;SDS011;7010;48.200;16.332;2022-11-20T03:08:00;11.73;;;10.52;;
13879;SDS011;7010;48.200;16.332;2022-11-20T03:10:28;15.77;;;12.40;;
13879;SDS011;7010;48.200;16.332;2022-11-20T03:12:57;14.65;;;11.93;;
13879;SDS011;7010;48.200;16.332;2022-11-20T03:15:26;19.38;;;13.50;;
13879;SDS011;7010;48.200;16.332;2022-11-20T03:17:55;12.33;;;11.03;;
13879;SDS011;7010;48.200;16.332;2022-11-20T03:20:24;12.67;;;10.87;;
13879;SDS011;7010;48.200;16.332;2022-11-20T03:22:53;16.90;;;11.97;;
13879;SDS011;7010;48.200;16.332;2022-11-20T03:25:22;18.57;;;13.33;;
13879;SDS011;7010;48.200;16.332;2022-11-20T03:27:50;17.02;;;12.68;;
13879;SDS011;7010;48.200;16.332;2022-11-20T03:30:18;14.27;;;12.23;;
13879;SDS011;7010;48.200;16.332;2022-11-20T03:32:53;16.73;;;11.67;;
13879;SDS011;7010;48.200;16.332;2022-11-20T03:35:22;16.35;;;12.82;;
13879;SDS011;7010;48.200;16.332;2022-11-20T03:37:50;20.53;;;13.73;;
13879;SDS011;7010;48.200;16.332;2022-11-20T03:40:18;17.13;;;13.10;;
13879;SDS011;7010;48.200;16.332;2022-11-20T03:42:46;13.17;;;11.93;;
13879;SDS011;7010;48.200;16.332;2022-11-20T03:45:15;20.85;;;13.43;;
13879;SDS011;7010;48.200;16.332;2022-11-20T03:47:44;16.65;;;13.50;;
13879;SDS011;7010;48.200;16.332;2022-11-20T03:50:14;15.10;;;12.27;;
13879;SDS011;7010;48.200;16.332;2022-11-20T03:52:45;17.33;;;12.43;;
13879;SDS011;7010;48.200;16.332;2022-11-20T03:55:14;17.23;;;13.23;;
13879;SDS011;7010;48.200;16.332;2022-11-20T03:57:42;13.00;;;11.70;;
13879;SDS011;7010;48.200;16.332;2022-11-20T04:00:11;13.07;;;11.27;;
13879;SDS011;7010;48.200;16.332;2022-11-20T04:02:40;15.07;;;13.00;;
13879;SDS011;7010;48.200;16.332;2022-11-20T04:05:08;14.18;;;12.07;;
13879;SDS011;7010;48.200;16.332;2022-11-20T04:07:38;12.30;;;10.80;;
13879;SDS011;7010;48.200;16.332;2022-11-20T04:10:06;16.13;;;12.67;;
13879;SDS011;7010;48.200;16.332;2022-11-20T04:12:35;17.00;;;12.52;;
13879;SDS011;7010;48.200;16.332;2022-11-20T04:15:04;13.52;;;11.85;;
13879;SDS011;7010;48.200;16.332;2022-11-20T04:17:32;17.13;;;12.35;;
13879;SDS011;7010;48.200;16.332;2022-11-20T04:20:00;19.95;;;14.65;;
13879;SDS011;7010;48.200;16.332;2022-11-20T04:22:29;15.43;;;13.50;;
13879;SDS011;7010;48.200;16.332;2022-11-20T04:24:58;20.02;;;13.95;;
13879;SDS011;7010;48.200;16.332;2022-11-20T04:27:27;13.43;;;11.57;;
13879;SDS011;7010;48.200;16.332;2022-11-20T04:29:55;16.88;;;12.48;;
13879;SDS011;7010;48.200;16.332;2022-11-20T04:32:23;17.35;;;13.60;;
13879;SDS011;7010;48.200;16.332;2022-11-20T04:34:51;13.63;;;12.20;;
13879;SDS011;7010;48.200;16.332;2022-11-20T04:37:20;14.23;;;12.32;;
13879;SDS011;7010;48.200;16.332;2022-11-20T04:39:48;17.33;;;12.88;;
13879;SDS011;7010;48.200;16.332;2022-11-20T04:42:18;16.67;;;12.93;;
13879;SDS011;7010;48.200;16.332;2022-11-20T04:44:58;15.80;;;12.50;;
13879;SDS011;7010;48.200;16.332;2022-11-20T04:47:26;20.73;;;14.98;;
13879;SDS011;7010;48.200;16.332;2022-11-20T04:49:54;17.17;;;13.77;;
13879;SDS011;7010;48.200;16.332;2022-11-20T04:52:23;15.18;;;12.68;;
13879;SDS011;7010;48.200;16.332;2022-11-20T04:54:51;17.27;;;14.15;;
13879;SDS011;7010;48.200;16.332;2022-11-20T04:57:25;13.70;;;11.50;;
13879;SDS011;7010;48.200;16.332;2022-11-20T04:59:54;15.35;;;12.55;;
13879;SDS011;7010;48.200;16.332;2022-11-20T05:02:22;14.02;;;12.48;;
13879;SDS011;7010;48.200;16.332;2022-11-20T05:04:51;14.70;;;12.77;;
13879;SDS011;7010;48.200;16.332;2022-11-20T05:07:19;16.27;;;13.45;;
13879;SDS011;7010;48.200;16.332;2022-11-20T05:09:47;15.60;;;13.10;;
13879;SDS011;7010;48.200;16.332;2022-11-20T05:12:15;15.80;;;13.88;;
13879;SDS011;7010;48.200;16.332;2022-11-20T05:14:45;21.75;;;14.30;;
13879;SDS011;7010;48.200;16.332;2022-11-20T05:17:13;17.52;;;14.15;;
13879;SDS011;7010;48.200;16.332;2022-11-20T05:19:41;15.70;;;13.02;;
13879;SDS011;7010;48.200;16.332;2022-11-20T05:22:12;17.48;;;14.13;;
13879;SDS011;7010;48.200;16.332;2022-11-20T05:24:40;14.50;;;12.90;;
13879;SDS011;7010;48.200;16.332;2022-11-20T05:27:09;13.93;;;12.23;;
13879;SDS011;7010;48.200;16.332;2022-11-20T05:29:37;18.98;;;12.90;;
13879;SDS011;7010;48.200;16.332;2022-11-20T05:32:07;16.33;;;12.27;;
13879;SDS011;7010;48.200;16.332;2022-11-20T05:34:36;13.65;;;12.27;;
13879;SDS011;7010;48.200;16.332;2022-11-20T05:37:04;14.43;;;12.10;;
13879;SDS011;7010;48.200;16.332;2022-11-20T05:39:32;17.52;;;12.68;;
13879;SDS011;7010;48.200;16.332;2022-11-20T05:42:00;14.13;;;12.07;;
13879;SDS011;7010;48.200;16.332;2022-11-20T05:44:46;14.27;;;12.10;;
13879;SDS011;7010;48.200;16.332;2022-11-20T05:47:15;17.00;;;13.30;;
13879;SDS011;7010;48.200;16.332;2022-11-20T05:49:43;13.98;;;12.27;;
13879;SDS011;7010;48.200;16.332;2022-11-20T05:52:12;13.35;;;11.88;;
13879;SDS011;7010;48.200;16.332;2022-11-20T05:54:40;16.15;;;12.82;;
13879;SDS011;7010;48.200;16.332;2022-11-20T05:57:08;13.35;;;11.95;;
13879;SDS011;7010;48.200;16.332;2022-11-20T05:59:37;15.10;;;12.75;;
13879;SDS011;7010;48.200;16.332;2022-11-20T06:02:05;14.77;;;13.10;;
13879;SDS011;7010;48.200;16.332;2022-11-20T06:04:34;14.27;;;12.77;;
13879;SDS011;7010;48.200;16.332;2022-11-20T06:07:04;14.98;;;12.40;;
13879;SDS011;7010;48.200;16.332;2022-11-20T06:09:33;19.23;;;13.55;;
13879;SDS011;7010;48.200;16.332;2022-11-20T06:12:01;13.80;;;12.40;;
13879;SDS011;7010;48.200;16.332;2022-11-20T06:14:29;15.40;;;13.13;;
13879;SDS011;7010;48.200;16.332;2022-11-20T06:16:57;13.70;;;12.30;;
13879;SDS011;7010;48.200;16.332;2022-11-20T06:19:26;16.70;;;13.63;;
13879;SDS011;7010;48.200;16.332;2022-11-20T06:21:55;17.63;;;13.40;;
13879;SDS011;7010;48.200;16.332;2022-11-20T06:24:24;20.57;;;13.30;;
13879;SDS011;7010;48.200;16.332;2022-11-20T06:26:52;16.20;;;13.38;;
13879;SDS011;7010;48.200;16.332;2022-11-20T06:29:20;19.63;;;14.48;;
13879;SDS011;7010;48.200;16.332;2022-11-20T06:31:49;19.17;;;13.18;;
13879;SDS011;7010;48.200;16.332;2022-11-20T06:34:17;14.30;;;12.18;;
13879;SDS011;7010;48.200;16.332;2022-11-20T06:36:45;17.87;;;12.77;;
13879;SDS011;7010;48.200;16.332;2022-11-20T06:39:15;15.57;;;12.68;;
13879;SDS011;7010;48.200;16.332;2022-11-20T06:41:43;14.90;;;12.55;;
13879;SDS011;7010;48.200;16.332;2022-11-20T06:44:11;16.98;;;13.70;;
13879;SDS011;7010;48.200;16.332;2022-11-20T06:46:39;18.88;;;14.45;;
13879;SDS011;7010;48.200;16.332;2022-11-20T06:49:08;19.92;;;15.13;;
13879;SDS011;7010;48.200;16.332;2022-11-20T06:51:36;19.10;;;14.15;;
13879;SDS011;7010;48.200;16.332;2022-11-20T06:54:04;15.70;;;13.30;;
13879;SDS011;7010;48.200;16.332;2022-11-20T06:56:34;15.15;;;13.55;;
13879;SDS011;7010;48.200;16.332;2022-11-20T06:59:03;16.27;;;12.93;;
13879;SDS011;7010;48.200;16.332;2022-11-20T07:01:32;17.20;;;14.27;;
13879;SDS011;7010;48.200;16.332;2022-11-20T07:04:01;17.25;;;14.20;;
13879;SDS011;7010;48.200;16.332;2022-11-20T07:06:30;16.50;;;13.55;;
13879;SDS011;7010;48.200;16.332;2022-11-20T07:08:58;21.30;;;14.63;;
13879;SDS011;7010;48.200;16.332;2022-11-20T07:11:27;15.93;;;14.30;;
13879;SDS011;7010;48.200;16.332;2022-11-20T07:13:57;18.08;;;14.68;;
13879;SDS011;7010;48.200;16.332;2022-11-20T07:16:26;18.02;;;15.10;;
13879;SDS011;7010;48.200;16.332;2022-11-20T07:18:54;18.63;;;14.50;;
13879;SDS011;7010;48.200;16.332;2022-11-20T07:21:22;16.35;;;13.93;;
13879;SDS011;7010;48.200;16.332;2022-11-20T07:23:51;18.98;;;14.98;;
13879;SDS011;7010;48.200;16.332;2022-11-20T07:26:19;20.27;;;14.30;;
13879;SDS011;7010;48.200;16.332;2022-11-20T07:28:47;18.63;;;15.25;;
13879;SDS011;7010;48.200;16.332;2022-11-20T07:31:17;16.15;;;14.23;;
13879;SDS011;7010;48.200;16.332;2022-11-20T07:33:45;16.48;;;13.43;;
13879;SDS011;7010;48.200;16.332;2022-11-20T07:36:14;15.82;;;14.23;;
13879;SDS011;7010;48.200;16.332;2022-11-20T07:38:42;17.05;;;14.80;;
13879;SDS011;7010;48.200;16.332;2022-11-20T07:41:10;19.63;;;14.70;;
13879;SDS011;7010;48.200;16.332;2022-11-20T07:43:38;16.20;;;13.85;;
13879;SDS011;7010;48.200;16.332;2022-11-20T07:46:07;17.10;;;14.85;;
13879;SDS011;7010;48.200;16.332;2022-11-20T07:48:36;16.42;;;14.02;;
13879;SDS011;7010;48.200;16.332;2022-11-20T07:51:05;17.90;;;14.23;;
13879;SDS011;7010;48.200;16.332;2022-11-20T07:53:33;18.67;;;14.75;;
13879;SDS011;7010;48.200;16.332;2022-11-20T07:56:02;17.17;;;13.68;;
13879;SDS011;7010;48.200;16.332;2022-11-20T07:58:31;21.95;;;15.05;;
13879;SDS011;7010;48.200;16.332;2022-11-20T08:01:04;15.90;;;14.20;;
13879;SDS011;7010;48.200;16.332;2022-11-20T08:03:33;14.90;;;13.30;;
13879;SDS011;7010;48.200;16.332;2022-11-20T08:06:06;15.55;;;13.73;;
13879;SDS011;7010;48.200;16.332;2022-11-20T08:08:35;21.65;;;16.38;;
13879;SDS011;7010;48.200;16.332;2022-11-20T08:11:08;16.83;;;14.18;;
13879;SDS011;7010;48.200;16.332;2022-11-20T08:13:50;19.58;;;15.52;;
13879;SDS011;7010;48.200;16.332;2022-11-20T08:16:36;19.80;;;14.88;;
13879;SDS011;7010;48.200;16.332;2022-11-20T08:19:04;17.20;;;14.80;;
13879;SDS011;7010;48.200;16.332;2022-11-20T08:21:34;18.67;;;15.23;;
13879;SDS011;7010;48.200;16.332;2022-11-20T08:24:04;20.13;;;14.85;;
13879;SDS011;7010;48.200;16.332;2022-11-20T08:26:33;19.20;;;15.57;;
13879;SDS011;7010;48.200;16.332;2022-11-20T08:29:03;15.63;;;14.00;;
13879;SDS011;7010;48.200;16.332;2022-11-20T08:31:32;22.30;;;16.52;;
13879;SDS011;7010;48.200;16.332;2022-11-20T08:34:00;16.65;;;14.82;;
13879;SDS011;7010;48.200;16.332;2022-11-20T08:36:36;17.88;;;14.85;;
13879;SDS011;7010;48.200;16.332;2022-11-20T08:39:04;23.55;;;16.20;;
13879;SDS011;7010;48.200;16.332;2022-11-20T08:41:32;15.57;;;13.93;;
13879;SDS011;7010;48.200;16.332;2022-11-20T08:44:03;16.90;;;15.07;;
13879;SDS011;7010;48.200;16.332;2022-11-20T08:46:33;17.02;;;14.85;;
13879;SDS011;7010;48.200;16.332;2022-11-20T08:49:03;19.58;;;15.27;;
13879;SDS011;7010;48.200;16.332;2022-11-20T08:51:32;22.88;;;16.17;;
13879;SDS011;7010;48.200;16.332;2022-11-20T08:54:02;17.20;;;15.07;;
13879;SDS011;7010;48.200;16.332;2022-11-20T08:56:31;17.02;;;14.85;;
13879;SDS011;7010;48.200;16.332;2022-11-20T08:58:59;19.08;;;16.05;;
13879;SDS011;7010;48.200;16.332;2022-11-20T09:01:48;16.38;;;13.82;;
13879;SDS011;7010;48.200;16.332;2022-11-20T09:04:16;17.35;;;15.50;;
13879;SDS011;7010;48.200;16.332;2022-11-20T09:06:44;18.27;;;15.05;;
13879;SDS011;7010;48.200;16.332;2022-11-20T09:09:18;16.85;;;14.45;;
13879;SDS011;7010;48.200;16.332;2022-11-20T09:11:48;20.88;;;14.88;;
13879;SDS011;7010;48.200;16.332;2022-11-20T09:14:17;33.00;;;16.42;;
13879;SDS011;7010;48.200;16.332;2022-11-20T09:16:45;19.65;;;15.45;;
13879;SDS011;7010;48.200;16.332;2022-11-20T09:19:13;24.95;;;15.98;;
13879;SDS011;7010;48.200;16.332;2022-11-20T09:22:02;17.67;;;15.70;;
13879;SDS011;7010;48.200;16.332;2022-11-20T09:24:32;21.67;;;16.77;;
13879;SDS011;7010;48.200;16.332;2022-11-20T09:27:03;26.05;;;17.38;;
13879;SDS011;7010;48.200;16.332;2022-11-20T09:29:32;16.85;;;14.77;;
13879;SDS011;7010;48.200;16.332;2022-11-20T09:32:00;21.80;;;15.23;;
13879;SDS011;7010;48.200;16.332;2022-11-20T09:34:28;15.77;;;14.18;;
13879;SDS011;7010;48.200;16.332;2022-11-20T09:36:56;16.45;;;14.70;;
13879;SDS011;7010;48.200;16.332;2022-11-20T09:39:32;15.77;;;14.05;;
13879;SDS011;7010;48.200;16.332;2022-11-20T09:42:17;20.45;;;15.23;;
13879;SDS011;7010;48.200;16.332;2022-11-20T09:47:50;19.80;;;16.63;;
13879;SDS011;7010;48.200;16.332;2022-11-20T09:50:31;17.48;;;15.57;;
13879;SDS011;7010;48.200;16.332;2022-11-20T09:53:13;21.02;;;17.48;;
13879;SDS011;7010;48.200;16.332;2022-11-20T09:55:52;19.13;;;15.75;;
13879;SDS011;7010;48.200;16.332;2022-11-20T09:58:25;19.48;;;15.68;;
13879;SDS011;7010;48.200;16.332;2022-11-20T10:00:59;18.48;;;16.40;;
13879;SDS011;7010;48.200;16.332;2022-11-20T10:03:36;20.52;;;16.17;;
13879;SDS011;7010;48.200;16.332;2022-11-20T10:06:10;20.40;;;16.42;;
13879;SDS011;7010;48.200;16.332;2022-11-20T10:08:44;18.67;;;16.67;;
13879;SDS011;7010;48.200;16.332;2022-11-20T10:11:23;25.90;;;17.48;;
13879;SDS011;7010;48.200;16.332;2022-11-20T10:14:00;18.40;;;16.48;;
13879;SDS011;7010;48.200;16.332;2022-11-20T10:16:45;19.27;;;16.02;;
13879;SDS011;7010;48.200;16.332;2022-11-20T10:19:27;21.75;;;18.00;;
13879;SDS011;7010;48.200;16.332;2022-11-20T10:22:18;24.23;;;16.88;;
13879;SDS011;7010;48.200;16.332;2022-11-20T10:24:56;29.55;;;16.88;;
13879;SDS011;7010;48.200;16.332;2022-11-20T10:27:43;22.20;;;17.15;;
13879;SDS011;7010;48.200;16.332;2022-11-20T10:30:24;20.17;;;15.82;;
13879;SDS011;7010;48.200;16.332;2022-11-20T10:32:53;22.83;;;17.63;;
13879;SDS011;7010;48.200;16.332;2022-11-20T10:35:26;21.80;;;16.80;;
13879;SDS011;7010;48.200;16.332;2022-11-20T10:38:01;25.45;;;15.98;;
13879;SDS011;7010;48.200;16.332;2022-11-20T10:40:34;22.05;;;17.42;;
13879;SDS011;7010;48.200;16.332;2022-11-20T10:43:10;21.55;;;16.63;;
13879;SDS011;7010;48.200;16.332;2022-11-20T10:45:47;18.50;;;16.30;;
13879;SDS011;7010;48.200;16.332;2022-11-20T10:48:22;21.23;;;16.85;;
13879;SDS011;7010;48.200;16.332;2022-11-20T10:50:59;18.90;;;16.90;;
13879;SDS011;7010;48.200;16.332;2022-11-20T10:53:44;24.23;;;18.25;;
13879;SDS011;7010;48.200;16.332;2022-11-20T10:56:20;19.10;;;16.52;;
13879;SDS011;7010;48.200;16.332;2022-11-20T10:58:58;21.08;;;17.63;;
13879;SDS011;7010;48.200;16.332;2022-11-20T11:01:38;23.25;;;17.42;;
13879;SDS011;7010;48.200;16.332;2022-11-20T11:04:14;20.30;;;16.20;;
13879;SDS011;7010;48.200;16.332;2022-11-20T11:06:54;25.23;;;17.60;;
13879;SDS011;7010;48.200;16.332;2022-11-20T11:09:30;19.73;;;16.80;;
13879;SDS011;7010;48.200;16.332;2022-11-20T11:12:03;20.85;;;15.93;;
13879;SDS011;7010;48.200;16.332;2022-11-20T11:14:49;17.65;;;15.80;;
13879;SDS011;7010;48.200;16.332;2022-11-20T11:17:22;20.77;;;16.23;;
13879;SDS011;7010;48.200;16.332;2022-11-20T11:19:57;20.70;;;16.60;;
13879;SDS011;7010;48.200;16.332;2022-11-20T11:22:26;17.48;;;15.52;;
13879;SDS011;7010;48.200;16.332;2022-11-20T11:24:56;22.63;;;17.10;;
13879;SDS011;7010;48.200;16.332;2022-11-20T11:27:25;23.85;;;16.48;;
13879;SDS011;7010;48.200;16.332;2022-11-20T11:30:03;23.00;;;15.93;;
13879;SDS011;7010;48.200;16.332;2022-11-20T11:32:41;20.20;;;17.10;;
13879;SDS011;7010;48.200;16.332;2022-11-20T11:35:20;25.02;;;16.15;;
13879;SDS011;7010;48.200;16.332;2022-11-20T11:37:51;28.77;;;17.73;;
13879;SDS011;7010;48.200;16.332;2022-11-20T11:40:21;17.65;;;15.15;;
13879;SDS011;7010;48.200;16.332;2022-11-20T11:42:54;22.20;;;17.60;;
13879;SDS011;7010;48.200;16.332;2022-11-20T11:45:26;19.73;;;17.27;;
13879;SDS011;7010;48.200;16.332;2022-11-20T11:47:55;18.98;;;15.93;;
13879;SDS011;7010;48.200;16.332;2022-11-20T11:50:26;22.92;;;17.77;;
13879;SDS011;7010;48.200;16.332;2022-11-20T11:53:01;17.60;;;15.77;;
13879;SDS011;7010;48.200;16.332;2022-11-20T11:55:36;23.13;;;18.50;;
13879;SDS011;7010;48.200;16.332;2022-11-20T11:58:11;18.85;;;16.67;;
13879;SDS011;7010;48.200;16.332;2022-11-20T12:00:49;22.70;;;17.48;;
13879;SDS011;7010;48.200;16.332;2022-11-20T12:03:25;21.70;;;17.05;;
13879;SDS011;7010;48.200;16.332;2022-11-20T12:05:57;24.77;;;17.88;;
13879;SDS011;7010;48.200;16.332;2022-11-20T12:08:31;23.02;;;17.20;;
13879;SDS011;7010;48.200;16.332;2022-11-20T12:11:14;18.70;;;16.75;;
13879;SDS011;7010;48.200;16.332;2022-11-20T12:13:48;18.33;;;16.30;;
13879;SDS011;7010;48.200;16.332;2022-11-20T12:16:22;17.15;;;15.30;;
13879;SDS011;7010;48.200;16.332;2022-11-20T12:18:51;18.25;;;16.23;;
13879;SDS011;7010;48.200;16.332;2022-11-20T12:21:23;17.45;;;14.80;;
13879;SDS011;7010;48.200;16.332;2022-11-20T12:24:02;18.75;;;15.30;;
13879;SDS011;7010;48.200;16.332;2022-11-20T12:26:55;22.13;;;16.50;;
13879;SDS011;7010;48.200;16.332;2022-11-20T12:29:40;15.93;;;14.32;;
13879;SDS011;7010;48.200;16.332;2022-11-20T12:32:25;22.27;;;16.23;;
13879;SDS011;7010;48.200;16.332;2022-11-20T12:35:11;21.02;;;15.13;;
13879;SDS011;7010;48.200;16.332;2022-11-20T12:37:52;38.28;;;13.93;;
13879;SDS011;7010;48.200;16.332;2022-11-20T12:40:38;19.13;;;15.70;;
13879;SDS011;7010;48.200;16.332;2022-11-20T12:43:13;21.52;;;15.98;;
13879;SDS011;7010;48.200;16.332;2022-11-20T12:46:07;30.35;;;15.77;;
13879;SDS011;7010;48.200;16.332;2022-11-20T12:49:06;16.88;;;15.07;;
13879;SDS011;7010;48.200;16.332;2022-11-20T12:57:53;17.67;;;14.57;;
13879;SDS011;7010;48.200;16.332;2022-11-20T13:00:24;18.77;;;14.52;;
13879;SDS011;7010;48.200;16.332;2022-11-20T13:03:06;19.33;;;15.57;;
13879;SDS011;7010;48.200;16.332;2022-11-20T13:05:53;21.77;;;16.48;;
13879;SDS011;7010;48.200;16.332;2022-11-20T13:08:27;16.27;;;14.18;;
13879;SDS011;7010;48.200;16.332;2022-11-20T13:11:01;14.63;;;13.13;;
13879;SDS011;7010;48.200;16.332;2022-11-20T13:13:36;18.08;;;16.00;;
13879;SDS011;7010;48.200;16.332;2022-11-20T13:16:14;17.45;;;14.77;;
13879;SDS011;7010;48.200;16.332;2022-11-20T13:18:46;16.73;;;14.77;;
13879;SDS011;7010;48.200;16.332;2022-11-20T13:21:34;17.27;;;14.52;;
13879;SDS011;7010;48.200;16.332;2022-11-20T13:24:04;18.23;;;16.17;;
13879;SDS011;7010;48.200;16.332;2022-11-20T13:26:32;18.55;;;13.98;;
13879;SDS011;7010;48.200;16.332;2022-11-20T13:29:02;17.02;;;15.23;;
13879;SDS011;7010;48.200;16.332;2022-11-20T13:31:38;17.45;;;15.55;;
13879;SDS011;7010;48.200;16.332;2022-11-20T13:34:11;16.95;;;14.77;;
13879;SDS011;7010;48.200;16.332;2022-11-20T13:36:51;16.35;;;14.02;;
13879;SDS011;7010;48.200;16.332;2022-11-20T13:39:24;19.83;;;15.80;;
13879;SDS011;7010;48.200;16.332;2022-11-20T13:41:54;16.33;;;13.75;;
13879;SDS011;7010;48.200;16.332;2022-11-20T13:44:25;14.82;;;12.50;;
13879;SDS011;7010;48.200;16.332;2022-11-20T13:46:57;19.08;;;14.13;;
13879;SDS011;7010;48.200;16.332;2022-11-20T13:49:26;14.77;;;13.23;;
13879;SDS011;7010;48.200;16.332;2022-11-20T13:52:01;15.52;;;14.00;;
13879;SDS011;7010;48.200;16.332;2022-11-20T13:54:55;18.63;;;14.95;;
13879;SDS011;7010;48.200;16.332;2022-11-20T13:57:36;17.23;;;14.27;;
13879;SDS011;7010;48.200;16.332;2022-11-20T14:00:16;22.25;;;13.95;;
13879;SDS011;7010;48.200;16.332;2022-11-20T14:02:48;17.42;;;13.60;;
13879;SDS011;7010;48.200;16.332;2022-11-20T14:05:27;16.50;;;14.13;;
13879;SDS011;7010;48.200;16.332;2022-11-20T14:07:59;23.98;;;14.18;;
13879;SDS011;7010;48.200;16.332;2022-11-20T14:10:31;14.23;;;12.77;;
13879;SDS011;7010;48.200;16.332;2022-11-20T14:13:09;15.45;;;13.80;;
13879;SDS011;7010;48.200;16.332;2022-11-20T14:15:38;22.88;;;16.60;;
13879;SDS011;7010;48.200;16.332;2022-11-20T14:18:11;16.77;;;13.88;;
13879;SDS011;7010;48.200;16.332;2022-11-20T14:20:41;17.67;;;15.20;;
13879;SDS011;7010;48.200;16.332;2022-11-20T14:23:12;18.38;;;14.90;;
13879;SDS011;7010;48.200;16.332;2022-11-20T14:25:41;16.80;;;14.77;;
13879;SDS011;7010;48.200;16.332;2022-11-20T14:28:11;16.92;;;14.38;;
13879;SDS011;7010;48.200;16.332;2022-11-20T14:30:47;19.80;;;15.68;;
13879;SDS011;7010;48.200;16.332;2022-11-20T14:33:16;18.33;;;15.70;;
13879;SDS011;7010;48.200;16.332;2022-11-20T14:35:47;16.08;;;14.38;;
13879;SDS011;7010;48.200;16.332;2022-11-20T14:38:18;17.80;;;15.90;;
13879;SDS011;7010;48.200;16.332;2022-11-20T14:40:49;17.52;;;15.50;;
13879;SDS011;7010;48.200;16.332;2022-11-20T14:43:19;20.20;;;17.05;;
13879;SDS011;7010;48.200;16.332;2022-11-20T14:45:52;21.30;;;17.00;;
13879;SDS011;7010;48.200;16.332;2022-11-20T14:48:28;19.48;;;15.05;;
13879;SDS011;7010;48.200;16.332;2022-11-20T14:50:58;21.25;;;15.90;;
13879;SDS011;7010;48.200;16.332;2022-11-20T14:53:28;19.80;;;15.63;;
13879;SDS011;7010;48.200;16.332;2022-11-20T14:55:57;20.75;;;15.88;;
13879;SDS011;7010;48.200;16.332;2022-11-20T14:58:27;17.35;;;15.05;;